sensor_id;sensor_type;location;lat;lon;timestamp;P1;durP1;ratioP1;P2;durP2;ratioP2
40503;SDS011;42292;49.048;8.374;2022-10-26T00:01:03;6.88;;;3.03;;
40503;SDS011;42292;49.048;8.374;2022-10-26T00:03:33;8.73;;;3.03;;
40503;SDS011;42292;49.048;8.374;2022-10-26T00:06:33;8.73;;;3.88;;
40503;SDS011;42292;49.048;8.374;2022-10-26T00:08:57;9.10;;;4.22;;
40503;SDS011;42292;49.048;8.374;2022-10-26T00:11:23;6.80;;;3.85;;
40503;SDS011;42292;49.048;8.374;2022-10-26T00:13:51;5.70;;;3.38;;
40503;SDS011;42292;49.048;8.374;2022-10-26T00:16:26;7.60;;;3.83;;
40503;SDS011;42292;49.048;8.374;2022-10-26T00:18:52;6.22;;;3.55;;
40503;SDS011;42292;49.048;8.374;2022-10-26T00:21:18;6.78;;;3.40;;
40503;SDS011;42292;49.048;8.374;2022-10-26T00:23:43;9.93;;;3.23;;
40503;SDS011;42292;49.048;8.374;2022-10-26T00:26:17;6.90;;;3.58;;
40503;SDS011;42292;49.048;8.374;2022-10-26T00:28:48;7.55;;;3.42;;
40503;SDS011;42292;49.048;8.374;2022-10-26T00:31:14;8.57;;;3.53;;
40503;SDS011;42292;49.048;8.374;2022-10-26T00:33:40;5.65;;;2.83;;
40503;SDS011;42292;49.048;8.374;2022-10-26T00:36:06;5.68;;;3.13;;
40503;SDS011;42292;49.048;8.374;2022-10-26T00:38:33;7.55;;;3.55;;
40503;SDS011;42292;49.048;8.374;2022-10-26T00:41:01;7.80;;;3.63;;
40503;SDS011;42292;49.048;8.374;2022-10-26T00:45:57;7.63;;;3.45;;
40503;SDS011;42292;49.048;8.374;2022-10-26T00:48:24;7.65;;;4.07;;
40503;SDS011;42292;49.048;8.374;2022-10-26T00:50:52;8.07;;;3.00;;
40503;SDS011;42292;49.048;8.374;2022-10-26T00:53:20;7.25;;;3.60;;
40503;SDS011;42292;49.048;8.374;2022-10-26T00:55:47;6.28;;;3.00;;
40503;SDS011;42292;49.048;8.374;2022-10-26T00:58:17;5.70;;;3.05;;
40503;SDS011;42292;49.048;8.374;2022-10-26T01:00:47;8.18;;;3.45;;
40503;SDS011;42292;49.048;8.374;2022-10-26T01:03:13;10.02;;;3.55;;
40503;SDS011;42292;49.048;8.374;2022-10-26T01:05:41;5.45;;;3.22;;
40503;SDS011;42292;49.048;8.374;2022-10-26T01:08:10;6.13;;;3.33;;
40503;SDS011;42292;49.048;8.374;2022-10-26T01:10:38;6.82;;;3.63;;
40503;SDS011;42292;49.048;8.374;2022-10-26T01:13:10;7.68;;;3.55;;
40503;SDS011;42292;49.048;8.374;2022-10-26T01:18:09;6.93;;;3.40;;
40503;SDS011;42292;49.048;8.374;2022-10-26T01:20:51;5.57;;;3.30;;
40503;SDS011;42292;49.048;8.374;2022-10-26T01:23:58;7.68;;;3.78;;
40503;SDS011;42292;49.048;8.374;2022-10-26T01:35:59;7.57;;;3.33;;
40503;SDS011;42292;49.048;8.374;2022-10-26T01:43:54;4.67;;;3.20;;
40503;SDS011;42292;49.048;8.374;2022-10-26T01:46:26;6.80;;;3.10;;
40503;SDS011;42292;49.048;8.374;2022-10-26T01:49:01;6.25;;;3.70;;
40503;SDS011;42292;49.048;8.374;2022-10-26T01:51:34;5.88;;;3.00;;
40503;SDS011;42292;49.048;8.374;2022-10-26T01:54:02;5.40;;;3.20;;
40503;SDS011;42292;49.048;8.374;2022-10-26T01:56:31;7.32;;;3.42;;
40503;SDS011;42292;49.048;8.374;2022-10-26T02:05:02;6.68;;;3.13;;
40503;SDS011;42292;49.048;8.374;2022-10-26T02:13:28;8.75;;;3.80;;
40503;SDS011;42292;49.048;8.374;2022-10-26T02:18:56;5.72;;;2.97;;
40503;SDS011;42292;49.048;8.374;2022-10-26T02:21:24;9.57;;;3.27;;
40503;SDS011;42292;49.048;8.374;2022-10-26T02:24:00;11.68;;;3.22;;
40503;SDS011;42292;49.048;8.374;2022-10-26T02:26:26;4.75;;;2.85;;
40503;SDS011;42292;49.048;8.374;2022-10-26T02:28:57;5.57;;;2.92;;
40503;SDS011;42292;49.048;8.374;2022-10-26T02:31:27;6.10;;;3.33;;
40503;SDS011;42292;49.048;8.374;2022-10-26T02:33:53;5.60;;;3.30;;
40503;SDS011;42292;49.048;8.374;2022-10-26T02:36:25;6.70;;;3.50;;
40503;SDS011;42292;49.048;8.374;2022-10-26T02:38:57;11.13;;;4.30;;
40503;SDS011;42292;49.048;8.374;2022-10-26T02:41:26;11.75;;;4.20;;
40503;SDS011;42292;49.048;8.374;2022-10-26T02:43:59;9.73;;;4.15;;
40503;SDS011;42292;49.048;8.374;2022-10-26T02:46:31;9.18;;;4.32;;
40503;SDS011;42292;49.048;8.374;2022-10-26T02:48:57;7.80;;;4.38;;
40503;SDS011;42292;49.048;8.374;2022-10-26T02:57:19;10.00;;;4.65;;
40503;SDS011;42292;49.048;8.374;2022-10-26T02:59:53;10.07;;;5.10;;
40503;SDS011;42292;49.048;8.374;2022-10-26T03:02:20;10.73;;;5.00;;
40503;SDS011;42292;49.048;8.374;2022-10-26T03:04:48;8.60;;;5.03;;
40503;SDS011;42292;49.048;8.374;2022-10-26T03:07:19;14.35;;;5.97;;
40503;SDS011;42292;49.048;8.374;2022-10-26T03:09:48;8.93;;;5.07;;
40503;SDS011;42292;49.048;8.374;2022-10-26T03:12:17;12.10;;;5.05;;
40503;SDS011;42292;49.048;8.374;2022-10-26T03:14:42;11.07;;;5.30;;
40503;SDS011;42292;49.048;8.374;2022-10-26T03:17:08;9.52;;;5.53;;
40503;SDS011;42292;49.048;8.374;2022-10-26T03:19:33;14.15;;;6.03;;
40503;SDS011;42292;49.048;8.374;2022-10-26T03:22:01;8.40;;;5.38;;
40503;SDS011;42292;49.048;8.374;2022-10-26T03:24:29;10.90;;;5.45;;
40503;SDS011;42292;49.048;8.374;2022-10-26T03:26:55;10.47;;;5.67;;
40503;SDS011;42292;49.048;8.374;2022-10-26T03:29:20;14.00;;;6.30;;
40503;SDS011;42292;49.048;8.374;2022-10-26T03:31:46;8.40;;;5.27;;
40503;SDS011;42292;49.048;8.374;2022-10-26T03:34:18;14.52;;;6.40;;
40503;SDS011;42292;49.048;8.374;2022-10-26T03:36:48;11.23;;;5.60;;
40503;SDS011;42292;49.048;8.374;2022-10-26T03:39:14;11.27;;;5.38;;
40503;SDS011;42292;49.048;8.374;2022-10-26T03:41:41;10.93;;;4.95;;
40503;SDS011;42292;49.048;8.374;2022-10-26T03:44:08;11.68;;;5.03;;
40503;SDS011;42292;49.048;8.374;2022-10-26T03:46:33;10.70;;;5.27;;
40503;SDS011;42292;49.048;8.374;2022-10-26T03:48:59;11.93;;;6.60;;
40503;SDS011;42292;49.048;8.374;2022-10-26T03:51:24;12.10;;;6.05;;
40503;SDS011;42292;49.048;8.374;2022-10-26T03:53:50;12.55;;;6.43;;
40503;SDS011;42292;49.048;8.374;2022-10-26T03:56:15;12.73;;;6.70;;
40503;SDS011;42292;49.048;8.374;2022-10-26T03:58:44;11.13;;;5.00;;
40503;SDS011;42292;49.048;8.374;2022-10-26T04:01:09;9.57;;;5.03;;
40503;SDS011;42292;49.048;8.374;2022-10-26T04:03:35;9.23;;;5.10;;
40503;SDS011;42292;49.048;8.374;2022-10-26T04:06:01;7.22;;;4.72;;
40503;SDS011;42292;49.048;8.374;2022-10-26T04:08:27;8.77;;;5.30;;
40503;SDS011;42292;49.048;8.374;2022-10-26T04:10:55;9.73;;;5.50;;
40503;SDS011;42292;49.048;8.374;2022-10-26T04:13:23;11.70;;;4.90;;
40503;SDS011;42292;49.048;8.374;2022-10-26T04:15:51;11.17;;;5.53;;
40503;SDS011;42292;49.048;8.374;2022-10-26T04:18:16;9.50;;;6.00;;
40503;SDS011;42292;49.048;8.374;2022-10-26T04:20:44;10.00;;;5.60;;
40503;SDS011;42292;49.048;8.374;2022-10-26T04:23:11;9.50;;;5.37;;
40503;SDS011;42292;49.048;8.374;2022-10-26T04:25:40;10.93;;;5.00;;
40503;SDS011;42292;49.048;8.374;2022-10-26T04:28:07;7.73;;;4.00;;
40503;SDS011;42292;49.048;8.374;2022-10-26T04:30:37;6.15;;;4.10;;
40503;SDS011;42292;49.048;8.374;2022-10-26T04:33:04;6.88;;;3.90;;
40503;SDS011;42292;49.048;8.374;2022-10-26T04:35:30;9.15;;;4.40;;
40503;SDS011;42292;49.048;8.374;2022-10-26T04:37:59;5.47;;;3.80;;
40503;SDS011;42292;49.048;8.374;2022-10-26T04:40:28;9.00;;;4.28;;
40503;SDS011;42292;49.048;8.374;2022-10-26T04:42:55;10.63;;;4.68;;
40503;SDS011;42292;49.048;8.374;2022-10-26T04:45:21;10.05;;;4.25;;
40503;SDS011;42292;49.048;8.374;2022-10-26T04:47:47;9.75;;;4.32;;
40503;SDS011;42292;49.048;8.374;2022-10-26T04:50:24;5.95;;;4.15;;
40503;SDS011;42292;49.048;8.374;2022-10-26T04:52:54;7.35;;;4.13;;
40503;SDS011;42292;49.048;8.374;2022-10-26T04:55:20;7.65;;;3.90;;
40503;SDS011;42292;49.048;8.374;2022-10-26T04:57:45;11.98;;;4.32;;
40503;SDS011;42292;49.048;8.374;2022-10-26T05:00:11;7.73;;;3.30;;
40503;SDS011;42292;49.048;8.374;2022-10-26T05:02:37;7.13;;;3.60;;
40503;SDS011;42292;49.048;8.374;2022-10-26T05:05:02;5.85;;;3.90;;
40503;SDS011;42292;49.048;8.374;2022-10-26T05:07:30;10.43;;;4.38;;
40503;SDS011;42292;49.048;8.374;2022-10-26T05:09:58;9.48;;;4.50;;
40503;SDS011;42292;49.048;8.374;2022-10-26T05:12:24;11.32;;;4.63;;
40503;SDS011;42292;49.048;8.374;2022-10-26T05:14:49;7.40;;;4.60;;
40503;SDS011;42292;49.048;8.374;2022-10-26T05:17:17;8.88;;;4.07;;
40503;SDS011;42292;49.048;8.374;2022-10-26T05:19:43;7.20;;;4.63;;
40503;SDS011;42292;49.048;8.374;2022-10-26T05:22:08;9.27;;;4.60;;
40503;SDS011;42292;49.048;8.374;2022-10-26T05:24:35;7.25;;;3.83;;
40503;SDS011;42292;49.048;8.374;2022-10-26T05:27:03;9.40;;;3.83;;
40503;SDS011;42292;49.048;8.374;2022-10-26T05:29:31;8.95;;;4.93;;
40503;SDS011;42292;49.048;8.374;2022-10-26T05:31:56;7.57;;;4.30;;
40503;SDS011;42292;49.048;8.374;2022-10-26T05:34:24;7.35;;;4.10;;
40503;SDS011;42292;49.048;8.374;2022-10-26T05:36:54;10.77;;;4.95;;
40503;SDS011;42292;49.048;8.374;2022-10-26T05:39:20;8.23;;;5.50;;
40503;SDS011;42292;49.048;8.374;2022-10-26T05:41:48;11.60;;;5.50;;
40503;SDS011;42292;49.048;8.374;2022-10-26T05:44:14;13.33;;;5.70;;
40503;SDS011;42292;49.048;8.374;2022-10-26T05:46:39;6.80;;;4.83;;
40503;SDS011;42292;49.048;8.374;2022-10-26T05:49:07;15.10;;;5.43;;
40503;SDS011;42292;49.048;8.374;2022-10-26T05:51:35;8.95;;;4.47;;
40503;SDS011;42292;49.048;8.374;2022-10-26T05:54:01;9.83;;;5.10;;
40503;SDS011;42292;49.048;8.374;2022-10-26T05:56:32;8.35;;;4.15;;
40503;SDS011;42292;49.048;8.374;2022-10-26T05:59:12;7.47;;;4.23;;
40503;SDS011;42292;49.048;8.374;2022-10-26T06:07:09;7.67;;;5.00;;
40503;SDS011;42292;49.048;8.374;2022-10-26T06:09:39;8.63;;;4.80;;
40503;SDS011;42292;49.048;8.374;2022-10-26T06:12:08;11.07;;;5.10;;
40503;SDS011;42292;49.048;8.374;2022-10-26T06:14:35;15.35;;;5.65;;
40503;SDS011;42292;49.048;8.374;2022-10-26T06:22:33;13.77;;;5.80;;
40503;SDS011;42292;49.048;8.374;2022-10-26T06:30:43;7.82;;;4.68;;
40503;SDS011;42292;49.048;8.374;2022-10-26T06:33:11;9.37;;;5.20;;
40503;SDS011;42292;49.048;8.374;2022-10-26T06:38:08;9.48;;;4.55;;
40503;SDS011;42292;49.048;8.374;2022-10-26T06:40:43;10.88;;;5.55;;
40503;SDS011;42292;49.048;8.374;2022-10-26T06:43:21;11.37;;;5.87;;
40503;SDS011;42292;49.048;8.374;2022-10-26T06:45:52;12.93;;;5.90;;
40503;SDS011;42292;49.048;8.374;2022-10-26T06:51:46;12.20;;;5.80;;
40503;SDS011;42292;49.048;8.374;2022-10-26T06:54:25;11.98;;;6.53;;
40503;SDS011;42292;49.048;8.374;2022-10-26T06:56:53;12.63;;;6.65;;
40503;SDS011;42292;49.048;8.374;2022-10-26T07:01:56;13.55;;;7.13;;
40503;SDS011;42292;49.048;8.374;2022-10-26T07:04:21;9.67;;;6.27;;
40503;SDS011;42292;49.048;8.374;2022-10-26T07:06:47;10.80;;;6.67;;
40503;SDS011;42292;49.048;8.374;2022-10-26T07:09:15;9.47;;;6.40;;
40503;SDS011;42292;49.048;8.374;2022-10-26T07:11:40;14.70;;;6.80;;
40503;SDS011;42292;49.048;8.374;2022-10-26T07:14:06;12.17;;;6.23;;
40503;SDS011;42292;49.048;8.374;2022-10-26T07:16:32;13.90;;;7.18;;
40503;SDS011;42292;49.048;8.374;2022-10-26T07:18:58;16.20;;;7.57;;
40503;SDS011;42292;49.048;8.374;2022-10-26T07:21:23;14.45;;;7.10;;
40503;SDS011;42292;49.048;8.374;2022-10-26T07:23:49;12.57;;;6.82;;
40503;SDS011;42292;49.048;8.374;2022-10-26T07:26:14;15.57;;;7.40;;
40503;SDS011;42292;49.048;8.374;2022-10-26T07:28:42;11.10;;;7.10;;
40503;SDS011;42292;49.048;8.374;2022-10-26T07:31:08;11.88;;;7.30;;
40503;SDS011;42292;49.048;8.374;2022-10-26T07:33:34;15.75;;;6.90;;
40503;SDS011;42292;49.048;8.374;2022-10-26T07:35:59;11.70;;;6.30;;
40503;SDS011;42292;49.048;8.374;2022-10-26T07:38:25;10.70;;;6.23;;
40503;SDS011;42292;49.048;8.374;2022-10-26T07:40:51;11.90;;;6.53;;
40503;SDS011;42292;49.048;8.374;2022-10-26T07:43:21;13.40;;;6.38;;
40503;SDS011;42292;49.048;8.374;2022-10-26T07:45:49;16.23;;;6.60;;
40503;SDS011;42292;49.048;8.374;2022-10-26T07:48:17;11.13;;;6.20;;
40503;SDS011;42292;49.048;8.374;2022-10-26T07:50:42;10.53;;;5.60;;
40503;SDS011;42292;49.048;8.374;2022-10-26T07:53:13;9.60;;;5.40;;
40503;SDS011;42292;49.048;8.374;2022-10-26T07:55:41;12.90;;;5.35;;
40503;SDS011;42292;49.048;8.374;2022-10-26T07:58:09;9.88;;;5.25;;
40503;SDS011;42292;49.048;8.374;2022-10-26T08:00:37;11.75;;;5.35;;
40503;SDS011;42292;49.048;8.374;2022-10-26T08:03:05;10.25;;;5.55;;
40503;SDS011;42292;49.048;8.374;2022-10-26T08:05:30;11.18;;;5.15;;
40503;SDS011;42292;49.048;8.374;2022-10-26T08:07:59;10.73;;;4.80;;
40503;SDS011;42292;49.048;8.374;2022-10-26T08:10:27;10.10;;;4.70;;
40503;SDS011;42292;49.048;8.374;2022-10-26T08:12:53;7.97;;;4.77;;
40503;SDS011;42292;49.048;8.374;2022-10-26T08:15:18;11.75;;;4.88;;
40503;SDS011;42292;49.048;8.374;2022-10-26T08:17:44;9.13;;;4.55;;
40503;SDS011;42292;49.048;8.374;2022-10-26T08:20:12;10.83;;;4.07;;
40503;SDS011;42292;49.048;8.374;2022-10-26T08:22:38;8.85;;;4.20;;
40503;SDS011;42292;49.048;8.374;2022-10-26T08:25:06;7.13;;;3.92;;
40503;SDS011;42292;49.048;8.374;2022-10-26T08:27:34;9.95;;;4.07;;
40503;SDS011;42292;49.048;8.374;2022-10-26T08:29:59;10.35;;;4.03;;
40503;SDS011;42292;49.048;8.374;2022-10-26T08:32:25;11.48;;;3.72;;
40503;SDS011;42292;49.048;8.374;2022-10-26T08:34:50;8.68;;;3.60;;
40503;SDS011;42292;49.048;8.374;2022-10-26T08:37:16;11.93;;;3.70;;
40503;SDS011;42292;49.048;8.374;2022-10-26T08:39:41;11.37;;;3.80;;
40503;SDS011;42292;49.048;8.374;2022-10-26T08:42:16;9.63;;;4.00;;
40503;SDS011;42292;49.048;8.374;2022-10-26T08:45:02;12.80;;;4.40;;
40503;SDS011;42292;49.048;8.374;2022-10-26T08:47:39;9.95;;;4.20;;
40503;SDS011;42292;49.048;8.374;2022-10-26T08:50:19;11.57;;;4.20;;
40503;SDS011;42292;49.048;8.374;2022-10-26T08:55:32;9.77;;;3.97;;
40503;SDS011;42292;49.048;8.374;2022-10-26T08:58:35;10.20;;;4.03;;
40503;SDS011;42292;49.048;8.374;2022-10-26T09:01:10;8.57;;;3.40;;
40503;SDS011;42292;49.048;8.374;2022-10-26T09:03:38;9.18;;;3.97;;
40503;SDS011;42292;49.048;8.374;2022-10-26T09:14:10;8.57;;;3.92;;
40503;SDS011;42292;49.048;8.374;2022-10-26T09:24:55;12.68;;;2.80;;
40503;SDS011;42292;49.048;8.374;2022-10-26T09:27:28;9.55;;;3.03;;
40503;SDS011;42292;49.048;8.374;2022-10-26T09:29:58;7.05;;;2.55;;
40503;SDS011;42292;49.048;8.374;2022-10-26T09:32:30;8.73;;;2.95;;
40503;SDS011;42292;49.048;8.374;2022-10-26T09:35:08;8.60;;;2.83;;
40503;SDS011;42292;49.048;8.374;2022-10-26T09:37:50;11.15;;;2.97;;
40503;SDS011;42292;49.048;8.374;2022-10-26T09:40:24;7.63;;;2.78;;
40503;SDS011;42292;49.048;8.374;2022-10-26T09:45:33;8.02;;;2.15;;
40503;SDS011;42292;49.048;8.374;2022-10-26T09:48:06;6.73;;;2.13;;
40503;SDS011;42292;49.048;8.374;2022-10-26T09:50:46;8.53;;;2.40;;
40503;SDS011;42292;49.048;8.374;2022-10-26T09:53:13;9.20;;;2.58;;
40503;SDS011;42292;49.048;8.374;2022-10-26T09:55:42;8.93;;;2.78;;
40503;SDS011;42292;49.048;8.374;2022-10-26T09:58:13;7.97;;;2.60;;
40503;SDS011;42292;49.048;8.374;2022-10-26T10:00:49;7.93;;;2.42;;
40503;SDS011;42292;49.048;8.374;2022-10-26T10:03:26;4.73;;;2.10;;
40503;SDS011;42292;49.048;8.374;2022-10-26T10:08:41;5.30;;;2.13;;
40503;SDS011;42292;49.048;8.374;2022-10-26T10:11:11;7.10;;;2.20;;
40503;SDS011;42292;49.048;8.374;2022-10-26T10:13:41;6.53;;;2.45;;
40503;SDS011;42292;49.048;8.374;2022-10-26T10:16:22;8.15;;;2.63;;
40503;SDS011;42292;49.048;8.374;2022-10-26T10:18:55;6.00;;;2.58;;
40503;SDS011;42292;49.048;8.374;2022-10-26T10:21:35;8.52;;;2.38;;
40503;SDS011;42292;49.048;8.374;2022-10-26T10:24:25;9.73;;;2.50;;
40503;SDS011;42292;49.048;8.374;2022-10-26T10:26:57;7.05;;;2.28;;
40503;SDS011;42292;49.048;8.374;2022-10-26T10:29:25;7.13;;;2.30;;
40503;SDS011;42292;49.048;8.374;2022-10-26T10:31:55;6.68;;;2.42;;
40503;SDS011;42292;49.048;8.374;2022-10-26T10:34:25;9.07;;;2.40;;
40503;SDS011;42292;49.048;8.374;2022-10-26T10:36:51;8.48;;;2.38;;
40503;SDS011;42292;49.048;8.374;2022-10-26T10:41:53;8.82;;;2.42;;
40503;SDS011;42292;49.048;8.374;2022-10-26T10:44:23;8.75;;;2.38;;
40503;SDS011;42292;49.048;8.374;2022-10-26T10:47:02;8.05;;;2.30;;
40503;SDS011;42292;49.048;8.374;2022-10-26T10:49:28;6.55;;;2.60;;
40503;SDS011;42292;49.048;8.374;2022-10-26T10:51:55;6.72;;;2.20;;
40503;SDS011;42292;49.048;8.374;2022-10-26T10:54:32;8.20;;;2.60;;
40503;SDS011;42292;49.048;8.374;2022-10-26T11:08:09;5.95;;;2.40;;
40503;SDS011;42292;49.048;8.374;2022-10-26T11:10:41;9.60;;;2.67;;
40503;SDS011;42292;49.048;8.374;2022-10-26T11:13:23;7.50;;;2.13;;
40503;SDS011;42292;49.048;8.374;2022-10-26T11:16:01;12.38;;;2.72;;
40503;SDS011;42292;49.048;8.374;2022-10-26T11:18:44;5.47;;;2.15;;
40503;SDS011;42292;49.048;8.374;2022-10-26T11:21:18;4.65;;;1.88;;
40503;SDS011;42292;49.048;8.374;2022-10-26T11:24:03;8.43;;;2.13;;
40503;SDS011;42292;49.048;8.374;2022-10-26T11:29:31;10.30;;;2.40;;
40503;SDS011;42292;49.048;8.374;2022-10-26T11:37:45;8.43;;;2.33;;
40503;SDS011;42292;49.048;8.374;2022-10-26T11:41:02;9.43;;;2.30;;
40503;SDS011;42292;49.048;8.374;2022-10-26T11:43:14;9.27;;;2.28;;
40503;SDS011;42292;49.048;8.374;2022-10-26T11:51:18;8.40;;;2.30;;
40503;SDS011;42292;49.048;8.374;2022-10-26T11:53:57;8.98;;;2.20;;
40503;SDS011;42292;49.048;8.374;2022-10-26T11:56:37;9.43;;;2.35;;
40503;SDS011;42292;49.048;8.374;2022-10-26T11:59:18;6.90;;;2.50;;
40503;SDS011;42292;49.048;8.374;2022-10-26T12:01:50;6.72;;;2.10;;
40503;SDS011;42292;49.048;8.374;2022-10-26T12:04:19;7.97;;;2.27;;
40503;SDS011;42292;49.048;8.374;2022-10-26T12:06:54;10.20;;;2.50;;
40503;SDS011;42292;49.048;8.374;2022-10-26T12:09:26;5.40;;;1.80;;
40503;SDS011;42292;49.048;8.374;2022-10-26T12:15:02;9.87;;;2.40;;
40503;SDS011;42292;49.048;8.374;2022-10-26T12:17:45;7.03;;;2.30;;
40503;SDS011;42292;49.048;8.374;2022-10-26T12:23:17;6.95;;;2.40;;
40503;SDS011;42292;49.048;8.374;2022-10-26T12:25:43;6.68;;;2.40;;
40503;SDS011;42292;49.048;8.374;2022-10-26T12:34:02;6.03;;;2.40;;
40503;SDS011;42292;49.048;8.374;2022-10-26T12:44:39;7.43;;;1.95;;
40503;SDS011;42292;49.048;8.374;2022-10-26T12:47:58;6.97;;;2.13;;
40503;SDS011;42292;49.048;8.374;2022-10-26T13:00:40;7.05;;;1.88;;
40503;SDS011;42292;49.048;8.374;2022-10-26T13:08:41;6.72;;;1.90;;
40503;SDS011;42292;49.048;8.374;2022-10-26T13:11:15;7.22;;;1.92;;
40503;SDS011;42292;49.048;8.374;2022-10-26T13:13:53;4.57;;;1.92;;
40503;SDS011;42292;49.048;8.374;2022-10-26T13:16:21;4.85;;;1.90;;
40503;SDS011;42292;49.048;8.374;2022-10-26T13:18:50;4.93;;;1.95;;
40503;SDS011;42292;49.048;8.374;2022-10-26T13:21:21;6.47;;;2.20;;
40503;SDS011;42292;49.048;8.374;2022-10-26T13:26:21;6.03;;;2.08;;
40503;SDS011;42292;49.048;8.374;2022-10-26T13:36:35;6.68;;;2.13;;
40503;SDS011;42292;49.048;8.374;2022-10-26T13:41:39;4.70;;;1.92;;
40503;SDS011;42292;49.048;8.374;2022-10-26T13:44:32;3.60;;;1.73;;
40503;SDS011;42292;49.048;8.374;2022-10-26T13:47:01;7.95;;;1.95;;
40503;SDS011;42292;49.048;8.374;2022-10-26T13:49:39;5.50;;;1.63;;
40503;SDS011;42292;49.048;8.374;2022-10-26T13:52:17;6.70;;;1.77;;
40503;SDS011;42292;49.048;8.374;2022-10-26T13:57:28;4.43;;;1.70;;
40503;SDS011;42292;49.048;8.374;2022-10-26T14:00:20;6.17;;;1.70;;
40503;SDS011;42292;49.048;8.374;2022-10-26T14:02:47;7.63;;;2.13;;
40503;SDS011;42292;49.048;8.374;2022-10-26T14:05:14;5.75;;;1.90;;
40503;SDS011;42292;49.048;8.374;2022-10-26T14:13:08;6.22;;;1.88;;
40503;SDS011;42292;49.048;8.374;2022-10-26T14:15:41;7.00;;;1.70;;
40503;SDS011;42292;49.048;8.374;2022-10-26T14:18:21;5.80;;;1.77;;
40503;SDS011;42292;49.048;8.374;2022-10-26T14:23:34;7.45;;;2.00;;
40503;SDS011;42292;49.048;8.374;2022-10-26T14:26:04;4.13;;;1.80;;
40503;SDS011;42292;49.048;8.374;2022-10-26T14:28:30;4.85;;;1.75;;
40503;SDS011;42292;49.048;8.374;2022-10-26T14:31:13;6.45;;;2.03;;
40503;SDS011;42292;49.048;8.374;2022-10-26T14:33:47;7.28;;;1.95;;
40503;SDS011;42292;49.048;8.374;2022-10-26T14:36:13;7.45;;;1.83;;
40503;SDS011;42292;49.048;8.374;2022-10-26T14:38:44;6.50;;;2.10;;
40503;SDS011;42292;49.048;8.374;2022-10-26T14:41:13;8.30;;;2.40;;
40503;SDS011;42292;49.048;8.374;2022-10-26T14:43:41;5.97;;;1.52;;
40503;SDS011;42292;49.048;8.374;2022-10-26T14:46:14;5.35;;;1.73;;
40503;SDS011;42292;49.048;8.374;2022-10-26T14:48:54;5.23;;;2.07;;
40503;SDS011;42292;49.048;8.374;2022-10-26T14:51:29;5.53;;;1.90;;
40503;SDS011;42292;49.048;8.374;2022-10-26T14:53:59;5.05;;;1.98;;
40503;SDS011;42292;49.048;8.374;2022-10-26T14:59:08;7.55;;;2.15;;
40503;SDS011;42292;49.048;8.374;2022-10-26T15:04:32;7.78;;;2.42;;
40503;SDS011;42292;49.048;8.374;2022-10-26T15:07:22;6.80;;;2.23;;
40503;SDS011;42292;49.048;8.374;2022-10-26T15:09:47;9.18;;;2.67;;
40503;SDS011;42292;49.048;8.374;2022-10-26T15:12:31;5.60;;;1.90;;
40503;SDS011;42292;49.048;8.374;2022-10-26T15:14:59;6.80;;;2.20;;
40503;SDS011;42292;49.048;8.374;2022-10-26T15:17:51;6.65;;;2.50;;
40503;SDS011;42292;49.048;8.374;2022-10-26T15:20:20;6.53;;;2.30;;
40503;SDS011;42292;49.048;8.374;2022-10-26T15:22:57;7.63;;;2.40;;
40503;SDS011;42292;49.048;8.374;2022-10-26T15:25:29;8.07;;;2.27;;
40503;SDS011;42292;49.048;8.374;2022-10-26T15:28:10;6.88;;;2.17;;
40503;SDS011;42292;49.048;8.374;2022-10-26T15:31:00;7.70;;;2.40;;
40503;SDS011;42292;49.048;8.374;2022-10-26T15:36:21;6.88;;;2.42;;
40503;SDS011;42292;49.048;8.374;2022-10-26T15:38:48;5.95;;;2.38;;
40503;SDS011;42292;49.048;8.374;2022-10-26T15:43:59;9.10;;;2.50;;
40503;SDS011;42292;49.048;8.374;2022-10-26T15:46:33;7.35;;;2.40;;
40503;SDS011;42292;49.048;8.374;2022-10-26T15:49:03;27.15;;;22.48;;
40503;SDS011;42292;49.048;8.374;2022-10-26T15:51:32;23.80;;;18.25;;
40503;SDS011;42292;49.048;8.374;2022-10-26T15:53:58;9.98;;;2.80;;
40503;SDS011;42292;49.048;8.374;2022-10-26T15:56:29;9.63;;;3.85;;
40503;SDS011;42292;49.048;8.374;2022-10-26T15:58:55;6.28;;;2.38;;
40503;SDS011;42292;49.048;8.374;2022-10-26T16:01:24;13.48;;;6.43;;
40503;SDS011;42292;49.048;8.374;2022-10-26T16:03:52;11.25;;;3.03;;
40503;SDS011;42292;49.048;8.374;2022-10-26T16:06:27;9.38;;;3.03;;
40503;SDS011;42292;49.048;8.374;2022-10-26T16:08:56;7.50;;;3.00;;
40503;SDS011;42292;49.048;8.374;2022-10-26T16:11:25;7.20;;;2.72;;
40503;SDS011;42292;49.048;8.374;2022-10-26T16:13:51;6.38;;;2.70;;
40503;SDS011;42292;49.048;8.374;2022-10-26T16:16:19;8.80;;;3.15;;
40503;SDS011;42292;49.048;8.374;2022-10-26T16:18:50;6.22;;;3.20;;
40503;SDS011;42292;49.048;8.374;2022-10-26T16:21:19;8.10;;;2.97;;
40503;SDS011;42292;49.048;8.374;2022-10-26T16:23:51;8.57;;;3.10;;
40503;SDS011;42292;49.048;8.374;2022-10-26T16:26:19;8.00;;;3.63;;
40503;SDS011;42292;49.048;8.374;2022-10-26T16:28:49;7.23;;;3.23;;
40503;SDS011;42292;49.048;8.374;2022-10-26T16:31:17;6.15;;;3.00;;
40503;SDS011;42292;49.048;8.374;2022-10-26T16:33:46;10.37;;;3.17;;
40503;SDS011;42292;49.048;8.374;2022-10-26T16:36:14;10.35;;;3.08;;
40503;SDS011;42292;49.048;8.374;2022-10-26T16:38:40;9.38;;;3.33;;
40503;SDS011;42292;49.048;8.374;2022-10-26T16:41:11;10.50;;;4.32;;
40503;SDS011;42292;49.048;8.374;2022-10-26T16:43:39;5.78;;;3.53;;
40503;SDS011;42292;49.048;8.374;2022-10-26T16:46:16;9.38;;;3.85;;
40503;SDS011;42292;49.048;8.374;2022-10-26T16:48:44;10.05;;;3.72;;
40503;SDS011;42292;49.048;8.374;2022-10-26T16:51:11;10.30;;;4.75;;
40503;SDS011;42292;49.048;8.374;2022-10-26T16:53:39;8.40;;;4.28;;
40503;SDS011;42292;49.048;8.374;2022-10-26T16:56:07;7.05;;;3.60;;
40503;SDS011;42292;49.048;8.374;2022-10-26T16:58:35;9.38;;;4.05;;
40503;SDS011;42292;49.048;8.374;2022-10-26T17:01:01;10.95;;;4.10;;
40503;SDS011;42292;49.048;8.374;2022-10-26T17:03:29;8.95;;;4.05;;
40503;SDS011;42292;49.048;8.374;2022-10-26T17:05:55;8.87;;;4.13;;
40503;SDS011;42292;49.048;8.374;2022-10-26T17:08:28;9.48;;;4.68;;
40503;SDS011;42292;49.048;8.374;2022-10-26T17:11:02;8.77;;;4.17;;
40503;SDS011;42292;49.048;8.374;2022-10-26T17:13:30;9.05;;;4.00;;
40503;SDS011;42292;49.048;8.374;2022-10-26T17:16:02;8.10;;;4.03;;
40503;SDS011;42292;49.048;8.374;2022-10-26T17:18:29;11.80;;;4.40;;
40503;SDS011;42292;49.048;8.374;2022-10-26T17:20:59;8.93;;;4.35;;
40503;SDS011;42292;49.048;8.374;2022-10-26T17:23:26;9.10;;;4.27;;
40503;SDS011;42292;49.048;8.374;2022-10-26T17:25:52;11.57;;;4.05;;
40503;SDS011;42292;49.048;8.374;2022-10-26T17:28:24;12.82;;;5.13;;
40503;SDS011;42292;49.048;8.374;2022-10-26T17:30:49;15.95;;;5.43;;
40503;SDS011;42292;49.048;8.374;2022-10-26T17:33:15;9.60;;;4.60;;
40503;SDS011;42292;49.048;8.374;2022-10-26T17:35:43;10.77;;;5.33;;
40503;SDS011;42292;49.048;8.374;2022-10-26T17:38:09;17.63;;;5.37;;
40503;SDS011;42292;49.048;8.374;2022-10-26T17:40:36;11.70;;;5.40;;
40503;SDS011;42292;49.048;8.374;2022-10-26T17:43:02;13.15;;;5.13;;
40503;SDS011;42292;49.048;8.374;2022-10-26T17:45:30;13.55;;;5.35;;
40503;SDS011;42292;49.048;8.374;2022-10-26T17:48:00;10.90;;;5.82;;
40503;SDS011;42292;49.048;8.374;2022-10-26T17:50:25;13.40;;;5.88;;
40503;SDS011;42292;49.048;8.374;2022-10-26T17:52:56;9.02;;;4.55;;
40503;SDS011;42292;49.048;8.374;2022-10-26T17:55:22;9.75;;;5.25;;
40503;SDS011;42292;49.048;8.374;2022-10-26T17:57:47;10.87;;;5.23;;
40503;SDS011;42292;49.048;8.374;2022-10-26T18:00:13;10.90;;;5.10;;
40503;SDS011;42292;49.048;8.374;2022-10-26T18:02:44;9.95;;;5.97;;
40503;SDS011;42292;49.048;8.374;2022-10-26T18:05:10;28.90;;;20.35;;
40503;SDS011;42292;49.048;8.374;2022-10-26T18:07:35;12.57;;;7.37;;
40503;SDS011;42292;49.048;8.374;2022-10-26T18:10:01;51.67;;;41.83;;